Аэропорт: Национальный аэропорт Минск. Минск

ICAO: UMMS

METAR:
2021-04-21 21:30:00
UMMS 212130Z 21004MPS CAVOK 08/05 Q1008 R31R/CLRD// R31L/////// NOSIG
METAR:
2021-04-21 17:18:00
TAF AMD UMMS 211718Z 2118/2218 23005MPS 9999 BKN020 TEMPO 2118/2120 1200 BCFG BR SCT003 FM212000 26005MPS 5000 BR SCT003 TEMPO 2120/2206 0400 FG BKN002 BECMG 2206/2207 27006MPS 8000 NSW BKN020 TEMPO 2207/2218 27009G14MPS 1200 TSRA BKN003 SCT025CB